Bettembourg, Luxembourg
Current Conditions -  °F | °C
As of 11:50 PM on Tuesday 27 Jan 2015 (Local Time) from ELLX Reporting Station
Broken Clouds Broken Clouds  
Wind Chill: 30°   Ceiling: 7000
Heat Index: 36°   Visibility: 3mi
Dew Point: 34°   Wind: 7mph
Humidity: 93%   Direction: 260°W
Pressure: 30.18"   Gusts: NA
Location:  49.52°N, 6.1°E
Report Text: ELLX 272250Z 26006KT 5000 FEW005 BKN070 02/01 Q1022 TEMPO 4000 BKN005
Loading
Personal Weather Stations






























Interactive Weather Map New forecast layout! Learn more

10-Day Weather Forecast

Advertisements
Track Severe Weather on mobile